createdAt,value
2024-05-09T00:05:47.869Z,0
2024-05-09T00:09:47.850Z,0
2024-05-09T00:11:48.192Z,0
2024-05-09T00:13:48.214Z,0
2024-05-09T00:15:47.971Z,0
2024-05-09T00:17:48.278Z,0
2024-05-09T00:21:47.874Z,0
2024-05-09T00:23:47.748Z,0
2024-05-09T00:25:48.134Z,0
2024-05-09T00:27:47.981Z,0
2024-05-09T00:31:48.200Z,0
2024-05-09T00:33:48.191Z,0
2024-05-09T00:35:47.896Z,0
2024-05-09T00:41:48.074Z,0
2024-05-09T00:43:48.260Z,0
2024-05-09T00:45:48.057Z,0
2024-05-09T00:49:48.251Z,0
2024-05-09T00:55:48.347Z,0
2024-05-09T00:57:47.928Z,0
2024-05-09T00:59:47.929Z,0
2024-05-09T01:01:48.166Z,0
2024-05-09T01:03:52.294Z,0
2024-05-09T01:07:48.009Z,0
2024-05-09T01:09:48.037Z,0
2024-05-09T01:13:47.962Z,0
2024-05-09T01:15:47.874Z,0
2024-05-09T01:17:48.816Z,0
2024-05-09T01:19:48.170Z,0
2024-05-09T01:23:48.188Z,0
2024-05-09T01:25:47.998Z,0
2024-05-09T01:27:47.808Z,0
2024-05-09T01:29:47.843Z,0
2024-05-09T01:31:48.331Z,0
2024-05-09T01:33:48.207Z,0
2024-05-09T01:35:47.967Z,0
2024-05-09T01:37:48.188Z,0
2024-05-09T01:39:50.684Z,0
2024-05-09T01:41:47.999Z,0
2024-05-09T01:43:48.111Z,0
2024-05-09T01:47:48.368Z,0
2024-05-09T01:51:48.134Z,0
2024-05-09T01:53:47.947Z,0
2024-05-09T01:55:48.082Z,0
2024-05-09T01:57:47.954Z,0
2024-05-09T02:01:58.528Z,0
2024-05-09T02:03:48.496Z,0
2024-05-09T02:05:48.774Z,0
2024-05-09T02:07:48.213Z,0
2024-05-09T02:09:47.747Z,0
2024-05-09T02:15:47.813Z,0
2024-05-09T02:17:49.064Z,0
2024-05-09T02:19:48.521Z,0
2024-05-09T02:21:47.897Z,0
2024-05-09T02:23:48.360Z,0
2024-05-09T02:27:47.849Z,0
2024-05-09T02:31:48.545Z,0
2024-05-09T02:33:50.749Z,0
2024-05-09T02:37:49.189Z,0
2024-05-09T02:41:47.929Z,0
2024-05-09T02:43:48.132Z,0
2024-05-09T02:45:47.965Z,0
2024-05-09T02:47:49.252Z,0
2024-05-09T02:51:47.981Z,0
2024-05-09T02:53:48.114Z,0
2024-05-09T02:55:48.645Z,0
2024-05-09T02:57:48.003Z,0
2024-05-09T03:01:48.196Z,0
2024-05-09T03:03:48.713Z,0
2024-05-09T03:05:48.540Z,0
2024-05-09T03:07:48.078Z,0
2024-05-09T03:11:48.481Z,0
2024-05-09T03:13:48.177Z,0
2024-05-09T03:15:47.807Z,0
2024-05-09T03:17:48.991Z,0
2024-05-09T03:19:47.964Z,0
2024-05-09T03:23:47.910Z,0
2024-05-09T03:25:47.919Z,0
2024-05-09T03:27:47.835Z,0
2024-05-09T03:29:47.763Z,0
2024-05-09T03:31:48.164Z,0
2024-05-09T03:33:48.101Z,0
2024-05-09T03:35:48.773Z,0
2024-05-09T03:37:47.901Z,0
2024-05-09T03:39:47.791Z,0
2024-05-09T03:43:47.943Z,0
2024-05-09T03:45:47.988Z,0
2024-05-09T03:47:49.419Z,0
2024-05-09T03:49:48.093Z,0
2024-05-09T03:53:48.284Z,0
2024-05-09T03:55:48.469Z,0
2024-05-09T03:57:48.055Z,0
2024-05-09T03:59:48.028Z,0
2024-05-09T04:01:48.276Z,0
2024-05-09T04:03:47.858Z,0
2024-05-09T04:05:48.207Z,0
2024-05-09T04:07:48.250Z,0
2024-05-09T04:09:48.179Z,0
2024-05-09T04:11:48.415Z,0
2024-05-09T04:13:47.971Z,0
2024-05-09T04:17:49.572Z,0
2024-05-09T04:19:48.304Z,0
2024-05-09T04:25:48.153Z,0
2024-05-09T04:27:48.035Z,0
2024-05-09T04:29:48.003Z,0
2024-05-09T04:31:48.746Z,0
2024-05-09T04:33:48.686Z,0
2024-05-09T04:37:47.952Z,0
2024-05-09T04:43:48.541Z,0
2024-05-09T04:45:47.856Z,0
2024-05-09T04:47:48.923Z,0
2024-05-09T04:53:47.968Z,0
2024-05-09T04:55:48.565Z,0
2024-05-09T04:57:48.034Z,0
2024-05-09T05:01:48.315Z,0
2024-05-09T05:03:48.441Z,0
2024-05-09T05:05:48.207Z,0
2024-05-09T05:07:48.274Z,0
2024-05-09T05:09:48.061Z,0
2024-05-09T05:13:48.457Z,0
2024-05-09T05:15:48.221Z,0
2024-05-09T05:17:49.014Z,0
2024-05-09T05:19:49.040Z,0
2024-05-09T05:23:48.149Z,0
2024-05-09T05:25:49.471Z,0
2024-05-09T05:27:48.070Z,0
2024-05-09T05:29:48.629Z,0
2024-05-09T05:31:47.869Z,0
2024-05-09T05:35:48.567Z,0
2024-05-09T05:37:48.470Z,0
2024-05-09T05:41:48.056Z,0
2024-05-09T05:43:48.406Z,0
2024-05-09T05:45:48.056Z,0
2024-05-09T05:47:48.591Z,0
2024-05-09T05:51:48.220Z,0
2024-05-09T05:53:48.416Z,0
2024-05-09T05:55:48.257Z,0
2024-05-09T05:59:48.154Z,0
2024-05-09T06:03:48.184Z,0
2024-05-09T06:05:48.546Z,0
2024-05-09T06:07:48.479Z,0
2024-05-09T06:11:48.313Z,0
2024-05-09T06:13:48.105Z,0
2024-05-09T06:15:48.031Z,0
2024-05-09T06:17:48.238Z,0
2024-05-09T06:19:48.798Z,0
2024-05-09T06:21:48.150Z,0
2024-05-09T06:23:48.506Z,0
2024-05-09T06:25:48.210Z,0
2024-05-09T06:31:48.129Z,0
2024-05-09T06:33:48.397Z,0
2024-05-09T06:39:48.648Z,0
2024-05-09T06:43:48.503Z,0
2024-05-09T06:45:49.851Z,0
2024-05-09T06:47:48.495Z,0
2024-05-09T06:51:47.990Z,0
2024-05-09T06:53:48.397Z,0
2024-05-09T06:55:49.068Z,0
2024-05-09T07:01:48.170Z,0
2024-05-09T07:03:48.422Z,0
2024-05-09T07:07:48.443Z,0
2024-05-09T07:13:48.159Z,0
2024-05-09T07:17:49.081Z,0
2024-05-09T07:25:48.562Z,0
2024-05-09T07:27:48.362Z,0
2024-05-09T07:35:48.185Z,0
2024-05-09T07:37:48.341Z,0
2024-05-09T07:39:48.150Z,0
2024-05-09T07:41:48.176Z,0
2024-05-09T07:43:48.171Z,0
2024-05-09T07:45:59.634Z,0
2024-05-09T07:53:54.729Z,0
2024-05-09T07:55:43.827Z,0
2024-05-09T07:57:43.436Z,0
2024-05-09T07:59:43.367Z,0
2024-05-09T08:01:43.798Z,0
2024-05-09T08:03:43.921Z,7543
2024-05-09T08:05:43.599Z,6982
2024-05-09T08:07:43.427Z,6526
2024-05-09T08:09:43.521Z,5223
2024-05-09T08:11:43.793Z,1744
2024-05-09T08:13:43.432Z,1094
2024-05-09T08:15:43.978Z,1805
2024-05-09T08:17:43.865Z,2141
2024-05-09T08:19:43.761Z,2578
2024-05-09T08:21:43.791Z,2587
2024-05-09T08:23:43.506Z,2825
2024-05-09T08:25:43.726Z,2903
2024-05-09T08:27:44.896Z,3091
2024-05-09T08:29:43.677Z,3145
2024-05-09T08:31:43.913Z,3152
2024-05-09T08:33:44.280Z,3274
2024-05-09T08:35:43.518Z,3213
2024-05-09T08:37:43.815Z,3261
2024-05-09T08:39:43.509Z,3372
2024-05-09T08:41:43.574Z,3423
2024-05-09T08:43:43.471Z,3439
2024-05-09T08:45:46.008Z,3329
2024-05-09T08:47:44.016Z,3476
2024-05-09T08:49:43.826Z,3526
2024-05-09T08:51:43.695Z,3502
2024-05-09T08:53:43.579Z,3570
2024-05-09T08:55:45.133Z,3707
2024-05-09T08:57:43.710Z,3635
2024-05-09T08:59:43.480Z,3581
2024-05-09T09:01:44.268Z,3771
2024-05-09T09:03:44.555Z,3715
2024-05-09T09:05:43.958Z,3752
2024-05-09T09:07:43.551Z,3879
2024-05-09T09:09:44.200Z,3758
2024-05-09T09:11:43.607Z,3886
2024-05-09T09:13:43.512Z,3980
2024-05-09T09:15:43.807Z,4054
2024-05-09T09:17:44.092Z,4144
2024-05-09T09:19:43.820Z,4059
2024-05-09T09:21:43.925Z,4226
2024-05-09T09:23:43.410Z,4296
2024-05-09T09:25:43.596Z,4199
2024-05-09T09:27:43.786Z,4443
2024-05-09T09:29:43.820Z,4296
2024-05-09T09:31:43.490Z,4192
2024-05-09T09:33:44.479Z,4312
2024-05-09T09:35:44.139Z,4462
2024-05-09T09:37:43.741Z,4383
2024-05-09T09:39:43.783Z,4560
2024-05-09T09:41:44.774Z,4454
2024-05-09T09:43:43.769Z,4524
2024-05-09T09:45:44.621Z,4553
2024-05-09T09:47:44.340Z,4651
2024-05-09T09:49:44.044Z,4553
2024-05-09T09:51:44.549Z,4488
2024-05-09T09:53:43.712Z,4557
2024-05-09T09:55:43.677Z,4598
2024-05-09T09:57:43.737Z,4611
2024-05-09T09:59:43.539Z,4598
2024-05-09T10:01:44.145Z,4822
2024-05-09T10:03:44.281Z,4801
2024-05-09T10:05:48.262Z,4706
2024-05-09T10:07:44.016Z,4797
2024-05-09T10:09:43.785Z,4941
2024-05-09T10:11:52.312Z,4804
2024-05-09T10:13:43.741Z,4806
2024-05-09T10:15:44.029Z,4728
2024-05-09T10:17:44.350Z,4808
2024-05-09T10:19:44.040Z,4792
2024-05-09T10:21:44.109Z,4878
2024-05-09T10:23:43.983Z,4828
2024-05-09T10:25:43.529Z,4798
2024-05-09T10:27:44.010Z,4786
2024-05-09T10:29:43.862Z,4710
2024-05-09T10:31:44.788Z,4628
2024-05-09T10:33:44.782Z,4773
2024-05-09T10:35:43.735Z,4849
2024-05-09T10:37:43.709Z,4837
2024-05-09T10:39:44.086Z,4996
2024-05-09T10:41:43.542Z,4820
2024-05-09T10:45:43.659Z,5123
2024-05-09T10:47:44.290Z,5298
2024-05-09T10:49:44.189Z,5279
2024-05-09T10:51:44.137Z,5326
2024-05-09T10:53:44.021Z,5321
2024-05-09T10:55:43.842Z,5225
2024-05-09T10:57:44.128Z,5293
2024-05-09T10:59:43.682Z,5394
2024-05-09T11:01:44.833Z,5339
2024-05-09T11:03:44.495Z,5182
2024-05-09T11:05:44.446Z,5145
2024-05-09T11:09:44.087Z,5218
2024-05-09T11:11:44.242Z,5276
2024-05-09T11:13:43.680Z,5205
2024-05-09T11:15:43.927Z,5178
2024-05-09T11:17:44.504Z,5131
2024-05-09T11:19:44.351Z,5116
2024-05-09T11:21:44.213Z,5231
2024-05-09T11:23:44.003Z,5317
2024-05-09T11:25:43.695Z,5313
2024-05-09T11:27:44.360Z,5269
2024-05-09T11:29:43.629Z,5282
2024-05-09T11:31:44.193Z,5118
2024-05-09T11:33:44.650Z,5117
2024-05-09T11:35:43.709Z,5321
2024-05-09T11:37:43.741Z,5227
2024-05-09T11:39:43.919Z,5303
2024-05-09T11:41:43.910Z,5164
2024-05-09T11:43:44.047Z,5105
2024-05-09T11:45:44.078Z,5121
2024-05-09T11:47:44.016Z,5017
2024-05-09T11:49:43.905Z,5237
2024-05-09T11:51:44.057Z,5174
2024-05-09T11:53:43.794Z,5263
2024-05-09T11:55:43.622Z,5201
2024-05-09T11:57:44.018Z,5098
2024-05-09T11:59:43.897Z,5101
2024-05-09T12:01:44.361Z,4991
2024-05-09T12:03:44.410Z,5139
2024-05-09T12:05:44.466Z,5205
2024-05-09T12:07:43.871Z,5153
2024-05-09T12:09:43.918Z,4894
2024-05-09T12:11:44.138Z,4860
2024-05-09T12:13:43.626Z,4877
2024-05-09T12:15:44.166Z,5063
2024-05-09T12:17:49.520Z,4813
2024-05-09T12:19:45.376Z,4956
2024-05-09T12:21:44.042Z,4934
2024-05-09T12:23:43.851Z,4711
2024-05-09T12:27:44.053Z,4794
2024-05-09T12:29:44.374Z,4759
2024-05-09T12:31:44.097Z,4855
2024-05-09T12:33:45.394Z,4853
2024-05-09T12:35:51.341Z,4823
2024-05-09T12:37:43.740Z,4679
2024-05-09T12:39:43.934Z,4755
2024-05-09T12:41:43.840Z,4722
2024-05-09T12:43:43.714Z,4571
2024-05-09T12:45:44.171Z,4534
2024-05-09T12:47:44.187Z,4512
2024-05-09T12:49:44.673Z,4509
2024-05-09T12:51:44.336Z,4539
2024-05-09T12:53:43.689Z,4407
2024-05-09T12:56:02.179Z,4460
2024-05-09T12:57:43.759Z,4460
2024-05-09T12:59:43.648Z,4339
2024-05-09T13:01:44.085Z,4385
2024-05-09T13:03:44.352Z,4243
2024-05-09T13:05:45.751Z,4244
2024-05-09T13:07:43.757Z,4410
2024-05-09T13:09:44.100Z,4243
2024-05-09T13:11:44.278Z,4268
2024-05-09T13:13:43.986Z,4176
2024-05-09T13:15:44.078Z,4212
2024-05-09T13:17:44.205Z,4237
2024-05-09T13:19:43.981Z,4001
2024-05-09T13:21:44.339Z,3873
2024-05-09T13:23:43.869Z,3917
2024-05-09T13:25:43.791Z,3852
2024-05-09T13:27:44.345Z,3833
2024-05-09T13:29:44.896Z,3878
2024-05-09T13:31:44.351Z,3759
2024-05-09T13:33:44.434Z,3911
2024-05-09T13:35:51.416Z,3833
2024-05-09T13:37:43.834Z,3487
2024-05-09T13:39:44.025Z,3328
2024-05-09T13:41:43.831Z,3113
2024-05-09T13:43:43.880Z,3223
2024-05-09T13:45:44.127Z,3314
2024-05-09T13:47:44.656Z,3297
2024-05-09T13:49:44.102Z,3468
2024-05-09T13:51:44.013Z,3269
2024-05-09T13:53:43.834Z,3334
2024-05-09T13:55:43.678Z,3301
2024-05-09T13:57:43.933Z,3331
2024-05-09T13:59:43.698Z,3212
2024-05-09T14:01:44.518Z,3337
2024-05-09T14:03:44.836Z,3261
2024-05-09T14:05:45.069Z,3134
2024-05-09T14:07:44.097Z,3130
2024-05-09T14:09:44.020Z,3014
2024-05-09T14:11:44.120Z,3039
2024-05-09T14:13:43.814Z,2970
2024-05-09T14:15:44.349Z,2878
2024-05-09T14:17:43.978Z,2930
2024-05-09T14:19:43.877Z,2823
2024-05-09T14:21:44.178Z,2824
2024-05-09T14:23:44.000Z,2809
2024-05-09T14:25:51.273Z,2723
2024-05-09T14:27:44.137Z,2583
2024-05-09T14:29:43.998Z,2620
2024-05-09T14:31:44.363Z,2501
2024-05-09T14:33:44.564Z,2463
2024-05-09T14:35:44.088Z,2490
2024-05-09T14:37:43.953Z,2398
2024-05-09T14:39:44.233Z,2214
2024-05-09T14:41:44.183Z,2213
2024-05-09T14:43:43.927Z,2141
2024-05-09T14:45:45.085Z,2135
2024-05-09T14:47:44.855Z,2124
2024-05-09T14:49:44.734Z,2025
2024-05-09T14:51:44.356Z,1926
2024-05-09T14:53:44.910Z,2066
2024-05-09T14:55:45.037Z,2019
2024-05-09T14:57:44.286Z,1957
2024-05-09T15:01:44.561Z,2010
2024-05-09T15:03:44.788Z,1660
2024-05-09T15:05:44.193Z,1752
2024-05-09T15:07:44.165Z,1595
2024-05-09T15:09:44.037Z,1652
2024-05-09T15:11:44.218Z,1486
2024-05-09T15:13:43.940Z,1308
2024-05-09T15:15:44.657Z,1485
2024-05-09T15:17:44.441Z,1405
2024-05-09T15:19:44.447Z,1232
2024-05-09T15:21:44.057Z,1215
2024-05-09T15:23:44.103Z,1113
2024-05-09T15:25:43.937Z,1131
2024-05-09T15:27:44.263Z,1030
2024-05-09T15:29:44.027Z,1036
2024-05-09T15:31:44.543Z,940
2024-05-09T15:33:44.614Z,691
2024-05-09T15:35:43.948Z,875
2024-05-09T15:37:44.022Z,774
2024-05-09T15:39:44.067Z,767
2024-05-09T15:41:44.267Z,693
2024-05-09T15:43:44.149Z,691
2024-05-09T15:45:44.328Z,598
2024-05-09T15:47:44.479Z,684
2024-05-09T15:49:44.602Z,519
2024-05-09T15:51:44.196Z,510
2024-05-09T15:53:44.036Z,513
2024-05-09T15:55:44.169Z,420
2024-05-09T15:57:44.288Z,257
2024-05-09T15:59:44.181Z,341
2024-05-09T16:01:44.580Z,252
2024-05-09T16:03:45.190Z,254
2024-05-09T16:05:45.475Z,171
2024-05-09T16:07:43.934Z,250
2024-05-09T16:09:44.392Z,169
2024-05-09T16:11:44.168Z,85
2024-05-09T16:13:44.153Z,0
2024-05-09T16:15:44.835Z,84
2024-05-09T16:17:44.221Z,0
2024-05-09T16:19:44.399Z,85
2024-05-09T16:21:44.180Z,0
2024-05-09T16:23:44.142Z,0
2024-05-09T16:25:44.008Z,0
2024-05-09T16:27:44.302Z,0
2024-05-09T16:29:43.914Z,0
2024-05-09T16:31:44.033Z,0
2024-05-09T16:33:44.758Z,0
2024-05-09T16:35:44.253Z,0
2024-05-09T16:37:43.943Z,0
2024-05-09T16:39:44.179Z,0
2024-05-09T16:41:44.335Z,0
2024-05-09T16:43:44.059Z,0
2024-05-09T16:45:45.338Z,0
2024-05-09T16:47:44.715Z,0
2024-05-09T16:49:44.189Z,0
2024-05-09T16:51:44.155Z,0
2024-05-09T16:53:44.256Z,0
2024-05-09T16:55:44.496Z,0
2024-05-09T16:57:44.417Z,0
2024-05-09T16:59:44.122Z,0
2024-05-09T17:01:44.569Z,0
2024-05-09T17:03:44.656Z,0
2024-05-09T17:05:44.841Z,0
2024-05-09T17:09:44.262Z,0
2024-05-09T17:11:44.372Z,0
2024-05-09T17:15:44.560Z,0
2024-05-09T17:17:44.691Z,0
2024-05-09T17:19:44.263Z,0
2024-05-09T17:21:44.501Z,0
2024-05-09T17:23:44.303Z,0
2024-05-09T17:25:44.120Z,0
2024-05-09T17:27:44.316Z,0
2024-05-09T17:29:44.209Z,0
2024-05-09T17:31:44.134Z,0
2024-05-09T17:33:45.359Z,0
2024-05-09T17:35:44.141Z,0
2024-05-09T17:37:44.147Z,0
2024-05-09T17:39:44.646Z,0
2024-05-09T17:41:44.134Z,0
2024-05-09T17:43:44.264Z,0
2024-05-09T17:45:44.321Z,0
2024-05-09T17:47:44.701Z,0
2024-05-09T17:49:44.237Z,0
2024-05-09T17:51:44.730Z,0
2024-05-09T17:53:44.128Z,0
2024-05-09T17:55:44.283Z,0
2024-05-09T17:57:44.385Z,0
2024-05-09T17:59:44.443Z,0
2024-05-09T18:01:44.594Z,0
2024-05-09T18:03:44.976Z,0
2024-05-09T18:05:46.435Z,0
2024-05-09T18:07:44.602Z,0
2024-05-09T18:09:44.532Z,0
2024-05-09T18:11:44.449Z,0
2024-05-09T18:13:44.125Z,0
2024-05-09T18:15:44.486Z,0
2024-05-09T18:17:44.715Z,0
2024-05-09T18:19:44.782Z,0
2024-05-09T18:21:44.598Z,0
2024-05-09T18:23:44.398Z,0
2024-05-09T18:25:44.178Z,0
2024-05-09T18:27:44.789Z,0
2024-05-09T18:29:44.343Z,0
2024-05-09T18:31:44.117Z,0
2024-05-09T18:33:45.114Z,0
2024-05-09T18:35:44.724Z,0
2024-05-09T18:37:44.157Z,0
2024-05-09T18:39:44.636Z,0
2024-05-09T18:41:44.077Z,0
2024-05-09T18:43:51.309Z,0
2024-05-09T18:45:44.464Z,0
2024-05-09T18:47:44.672Z,0
2024-05-09T18:49:45.083Z,0
2024-05-09T18:51:45.732Z,0
2024-05-09T18:53:46.006Z,0
2024-05-09T18:55:44.735Z,0
2024-05-09T18:57:44.394Z,0
2024-05-09T18:59:44.200Z,0
2024-05-09T19:01:44.790Z,0
2024-05-09T19:03:45.011Z,0
2024-05-09T19:05:47.326Z,0
2024-05-09T19:07:44.192Z,0
2024-05-09T19:09:45.046Z,0
2024-05-09T19:11:44.631Z,0
2024-05-09T19:13:44.286Z,0
2024-05-09T19:15:45.694Z,0
2024-05-09T19:17:44.745Z,0
2024-05-09T19:19:44.984Z,0
2024-05-09T19:21:44.525Z,0
2024-05-09T19:23:52.867Z,0
2024-05-09T19:25:44.321Z,0
2024-05-09T19:27:44.648Z,0
2024-05-09T19:29:44.335Z,0
2024-05-09T19:31:44.670Z,0
2024-05-09T19:33:44.990Z,0
2024-05-09T19:35:44.722Z,0
2024-05-09T19:37:44.404Z,0
2024-05-09T19:39:44.527Z,0
2024-05-09T19:41:44.562Z,0
2024-05-09T19:43:44.568Z,0
2024-05-09T19:45:44.812Z,0
2024-05-09T19:47:44.881Z,0
2024-05-09T19:49:44.804Z,0
2024-05-09T19:51:44.514Z,0
2024-05-09T19:53:44.298Z,0
2024-05-09T19:55:44.802Z,0
2024-05-09T19:57:44.502Z,0
2024-05-09T19:59:44.761Z,0
2024-05-09T20:01:45.070Z,0
2024-05-09T20:03:44.982Z,0
2024-05-09T20:05:46.160Z,0
2024-05-09T20:07:44.857Z,0
2024-05-09T20:09:44.603Z,0
2024-05-09T20:11:44.643Z,0
2024-05-09T20:13:44.244Z,0
2024-05-09T20:15:44.886Z,0
2024-05-09T20:17:44.715Z,0
2024-05-09T20:19:45.101Z,0
2024-05-09T20:21:44.527Z,0
2024-05-09T20:23:44.441Z,0
2024-05-09T20:25:44.570Z,0
2024-05-09T20:27:44.723Z,0
2024-05-09T20:29:44.337Z,0
2024-05-09T20:31:44.457Z,0
2024-05-09T20:33:44.775Z,0
2024-05-09T20:35:44.529Z,0
2024-05-09T20:37:44.368Z,0
2024-05-09T20:39:44.439Z,0
2024-05-09T20:41:44.385Z,0
2024-05-09T20:43:44.304Z,0
2024-05-09T20:45:44.853Z,0
2024-05-09T20:47:44.818Z,0
2024-05-09T20:49:44.847Z,0
2024-05-09T20:51:44.494Z,0
2024-05-09T20:53:44.405Z,0
2024-05-09T20:55:46.037Z,0
2024-05-09T20:57:44.653Z,0
2024-05-09T20:59:44.590Z,0
2024-05-09T21:01:49.811Z,0
2024-05-09T21:03:44.818Z,0
2024-05-09T21:05:45.414Z,0
2024-05-09T21:07:44.383Z,0
2024-05-09T21:09:44.748Z,0
2024-05-09T21:11:44.691Z,0
2024-05-09T21:13:44.483Z,0
2024-05-09T21:15:44.927Z,0
2024-05-09T21:17:44.951Z,0
2024-05-09T21:19:44.733Z,0
2024-05-09T21:21:44.693Z,0
2024-05-09T21:23:44.385Z,0
2024-05-09T21:25:44.461Z,0
2024-05-09T21:27:45.013Z,0
2024-05-09T21:29:44.413Z,0
2024-05-09T21:31:44.299Z,0
2024-05-09T21:33:45.299Z,0
2024-05-09T21:35:45.813Z,0
2024-05-09T21:37:44.347Z,0
2024-05-09T21:39:44.807Z,0
2024-05-09T21:41:44.394Z,0
2024-05-09T21:43:44.533Z,0
2024-05-09T21:45:44.674Z,0
2024-05-09T21:47:45.024Z,0
2024-05-09T21:49:44.833Z,0
2024-05-09T21:51:44.757Z,0
2024-05-09T21:53:44.443Z,0
2024-05-09T21:55:44.866Z,0
2024-05-09T21:57:44.695Z,0
2024-05-09T21:59:44.600Z,0
2024-05-09T22:01:44.836Z,0
2024-05-09T22:03:45.131Z,0
2024-05-09T22:05:45.860Z,0
2024-05-09T22:07:44.594Z,0
2024-05-09T22:09:44.793Z,0
2024-05-09T22:11:44.648Z,0
2024-05-09T22:13:44.461Z,0
2024-05-09T22:15:44.976Z,0
2024-05-09T22:17:45.032Z,0
2024-05-09T22:19:44.633Z,0
2024-05-09T22:21:44.659Z,0
2024-05-09T22:23:44.418Z,0
2024-05-09T22:25:44.907Z,0
2024-05-09T22:27:44.876Z,0
2024-05-09T22:29:44.287Z,0
2024-05-09T22:31:44.263Z,0
2024-05-09T22:33:48.959Z,0
2024-05-09T22:35:44.255Z,0
2024-05-09T22:37:44.256Z,0
2024-05-09T22:39:44.517Z,0
2024-05-09T22:41:44.257Z,0
2024-05-09T22:43:44.273Z,0
2024-05-09T22:45:44.850Z,0
2024-05-09T22:47:44.647Z,0
2024-05-09T22:49:44.542Z,0
2024-05-09T22:51:44.671Z,0
2024-05-09T22:53:44.308Z,0
2024-05-09T22:55:44.563Z,0
2024-05-09T22:57:44.775Z,0
2024-05-09T22:59:44.602Z,0
2024-05-09T23:01:44.922Z,0
2024-05-09T23:03:45.205Z,0
2024-05-09T23:05:44.707Z,0
2024-05-09T23:07:44.511Z,0
2024-05-09T23:09:44.793Z,0
2024-05-09T23:11:45.044Z,0
2024-05-09T23:13:44.566Z,0
2024-05-09T23:15:44.693Z,0
2024-05-09T23:17:45.237Z,0
2024-05-09T23:19:44.852Z,0
2024-05-09T23:21:44.795Z,0
2024-05-09T23:23:44.701Z,0
2024-05-09T23:25:44.609Z,0
2024-05-09T23:27:44.895Z,0
2024-05-09T23:29:44.747Z,0
2024-05-09T23:31:44.507Z,0
2024-05-09T23:33:45.329Z,0
2024-05-09T23:35:45.455Z,0
2024-05-09T23:37:44.432Z,0
2024-05-09T23:39:45.952Z,0
2024-05-09T23:41:44.648Z,0
2024-05-09T23:43:45.331Z,0
2024-05-09T23:45:44.735Z,0
2024-05-09T23:47:45.309Z,0
2024-05-09T23:49:44.858Z,0
2024-05-09T23:51:44.671Z,0
2024-05-09T23:53:44.937Z,0
2024-05-09T23:55:44.485Z,0
2024-05-09T23:57:44.927Z,0
2024-05-09T23:59:44.725Z,0
